»·PEaware :: DAL3625 KSEA-KBIL

DAL3625 :: KSEA-KBIL

FLIGHT INFORMATION

Flight Status: Arrived
Operator:
Delta Air Lines
More flights by this operator :: More flights under this callsign
Pilot: Jorge C. (29326)
Aircraft: AIRBUS A320
(A320)
More flights by this aircraft type
Origin: KSEA Seattle-Tacoma Intl
United States
Destination: KBIL Billings Logan Intl
United States
More flights between these airports :: More routes between these airports
Route: SEA7 NORMY J90 HLN LOKOW CRAZI3
File this flight plan on PilotEdge
Remarks: RMK / SIMBRIEF
Altitude:
(Current/Filed)
37,000ft
Speed:
(Current/Filed)
463kts
Departed: 09-Feb-21 01:50 PM
Arrived: 09-Feb-21 03:06 PM
Distance/Time
Traveled:
575nm/1:16
Distance/Time
To Go:
Arrived

Flight Plot

Page will automatically refresh every two minutes.

Flight plan parsing failed; only flown route is shown


Map Options




Map Legend


Flown Route
Filed Route
Departure Airport
Arrival Airport
Navaid (VOR, NDB)
Fix

Horizontal Profiles

Position Reports

Time Latitude Longitude Heading Altitude Ground
Speed
09-Feb-21 13:20 47.445279 -122.304646 90 442ft 0kts
09-Feb-21 13:21 47.445279 -122.304646 90 442ft 0kts
09-Feb-21 13:21 47.445279 -122.304646 90 442ft 0kts
09-Feb-21 13:23 47.445279 -122.304646 90 442ft 0kts
09-Feb-21 13:23 47.445279 -122.304646 90 442ft 0kts
09-Feb-21 13:24 47.445279 -122.304646 90 442ft 0kts
09-Feb-21 13:25 47.445279 -122.304646 90 442ft 0kts
09-Feb-21 13:26 47.445279 -122.304646 90 442ft 0kts
09-Feb-21 13:27 47.445279 -122.304646 90 442ft 0kts
09-Feb-21 13:28 47.445279 -122.304646 90 442ft 0kts
09-Feb-21 13:29 47.445279 -122.304646 90 442ft 0kts
09-Feb-21 13:30 47.445279 -122.304646 90 442ft 0kts
09-Feb-21 13:31 47.445279 -122.304646 90 442ft 0kts
09-Feb-21 13:32 47.445279 -122.304646 90 442ft 0kts
09-Feb-21 13:33 47.445279 -122.304646 90 442ft 0kts
09-Feb-21 13:34 47.445279 -122.304646 90 442ft 0kts
09-Feb-21 13:35 47.445279 -122.304646 90 442ft 0kts
09-Feb-21 13:36 47.445279 -122.304646 90 442ft 0kts
09-Feb-21 13:37 47.445279 -122.304646 90 442ft 0kts
09-Feb-21 13:38 47.445283 -122.305287 90 442ft 2kts
09-Feb-21 13:39 47.445386 -122.306137 136 442ft 2kts
09-Feb-21 13:40 47.445703 -122.306307 181 442ft 0kts
09-Feb-21 13:41 47.445703 -122.306307 181 442ft 0kts
09-Feb-21 13:42 47.445703 -122.306307 181 442ft 0kts
09-Feb-21 13:43 47.445249 -122.306323 181 442ft 9kts
09-Feb-21 13:44 47.440145 -122.306351 179 442ft 24kts
09-Feb-21 13:45 47.436225 -122.306105 152 442ft 15kts
09-Feb-21 13:46 47.431755 -122.306420 255 442ft 0kts
09-Feb-21 13:47 47.431755 -122.306420 255 442ft 0kts
09-Feb-21 13:48 47.431718 -122.306636 258 442ft 3kts
09-Feb-21 13:49 47.443056 -122.308188 359 453ft 161kts
09-Feb-21 13:50 47.498703 -122.307938 359 3426ft 236kts
09-Feb-21 13:51 47.571554 -122.307973 359 6706ft 278kts
09-Feb-21 13:52 47.647758 -122.308292 358 8979ft 278kts
09-Feb-21 13:53 47.724306 -122.302643 23 9766ft 284kts
09-Feb-21 13:54 47.742474 -122.190870 119 12344ft 358kts
09-Feb-21 13:55 47.667448 -122.073369 137 13459ft 429kts
09-Feb-21 13:56 47.580783 -121.944789 137 14964ft 448kts
09-Feb-21 13:57 47.492677 -121.814168 136 14981ft 448kts
09-Feb-21 13:58 47.428208 -121.661548 89 16074ft 455kts
09-Feb-21 13:59 47.426058 -121.471510 86 17888ft 471kts
09-Feb-21 14:00 47.423151 -121.275374 87 19628ft 484kts
09-Feb-21 14:01 47.419664 -121.073734 87 21155ft 497kts
09-Feb-21 14:02 47.415759 -120.867764 87 22573ft 508kts
09-Feb-21 14:03 47.411370 -120.656901 87 23816ft 520kts
09-Feb-21 14:04 47.406175 -120.441572 90 24961ft 533kts
09-Feb-21 14:05 47.372505 -120.224713 102 26000ft 547kts
09-Feb-21 14:06 47.334199 -120.005297 103 27029ft 554kts
09-Feb-21 14:07 47.295180 -119.784707 103 28076ft 557kts
09-Feb-21 14:08 47.255727 -119.564201 103 29299ft 557kts
09-Feb-21 14:09 47.215889 -119.343168 102 30539ft 557kts
09-Feb-21 14:10 47.200928 -119.118127 92 31730ft 553kts
09-Feb-21 14:11 47.189266 -118.893369 92 32886ft 551kts
09-Feb-21 14:12 47.177144 -118.668542 91 33981ft 549kts
09-Feb-21 14:13 47.164707 -118.445907 91 35046ft 546kts
09-Feb-21 14:14 47.151879 -118.224101 92 35987ft 544kts
09-Feb-21 14:15 47.138663 -118.003030 93 36844ft 542kts
09-Feb-21 14:16 47.125042 -117.782809 93 37191ft 543kts
09-Feb-21 14:17 47.110934 -117.561583 93 37193ft 543kts
09-Feb-21 14:18 47.096418 -117.340786 94 37192ft 544kts
09-Feb-21 14:19 47.081500 -117.120410 94 37181ft 543kts
09-Feb-21 14:20 47.066118 -116.899619 94 37128ft 543kts
09-Feb-21 14:21 47.050308 -116.678885 94 37128ft 544kts
09-Feb-21 14:22 47.034069 -116.458198 94 37140ft 545kts
09-Feb-21 14:23 47.017344 -116.236809 95 37137ft 545kts
09-Feb-21 14:24 47.000240 -116.016218 95 37080ft 545kts
09-Feb-21 14:25 46.982723 -115.795884 95 37041ft 546kts
09-Feb-21 14:26 46.964720 -115.574942 95 37051ft 547kts
09-Feb-21 14:27 46.946233 -115.353397 95 37056ft 547kts
09-Feb-21 14:28 46.927374 -115.132645 96 37061ft 547kts
09-Feb-21 14:29 46.908247 -114.913870 96 37123ft 547kts
09-Feb-21 14:30 46.888769 -114.695951 96 37124ft 548kts
09-Feb-21 14:31 46.868683 -114.476072 96 37127ft 548kts
09-Feb-21 14:32 46.848191 -114.256522 97 37125ft 548kts
09-Feb-21 14:33 46.827249 -114.036807 97 37116ft 548kts
09-Feb-21 14:34 46.806271 -113.821182 97 37112ft 548kts
09-Feb-21 14:35 46.784624 -113.603090 97 37111ft 548kts
09-Feb-21 14:36 46.762320 -113.382810 97 37108ft 549kts
09-Feb-21 14:37 46.739694 -113.163656 98 37093ft 548kts
09-Feb-21 14:38 46.716603 -112.944268 98 37070ft 548kts
09-Feb-21 14:39 46.693095 -112.725097 98 37062ft 549kts
09-Feb-21 14:40 46.669151 -112.505941 98 37068ft 550kts
09-Feb-21 14:41 46.644674 -112.285947 99 37083ft 550kts
09-Feb-21 14:42 46.620112 -112.066671 99 37065ft 550kts
09-Feb-21 14:43 46.592699 -111.847128 101 34776ft 553kts
09-Feb-21 14:44 46.563108 -111.627107 101 31660ft 562kts
09-Feb-21 14:45 46.532644 -111.403962 100 28350ft 569kts
09-Feb-21 14:46 46.501603 -111.179893 101 25443ft 567kts
09-Feb-21 14:48 46.469568 -110.956535 105 23891ft 561kts
09-Feb-21 14:49 46.423670 -110.743483 109 22872ft 547kts
09-Feb-21 14:50 46.377558 -110.535093 109 21906ft 537kts
09-Feb-21 14:51 46.331987 -110.331161 110 20936ft 526kts
09-Feb-21 14:52 46.286966 -110.131603 110 19967ft 515kts
09-Feb-21 14:53 46.242807 -109.937617 110 19152ft 493kts
09-Feb-21 14:54 46.202749 -109.762701 110 18796ft 426kts
09-Feb-21 14:55 46.156713 -109.610907 117 17456ft 408kts
09-Feb-21 14:56 46.110183 -109.466012 117 15940ft 389kts
09-Feb-21 14:57 46.065545 -109.327699 117 14386ft 372kts
09-Feb-21 14:58 46.022609 -109.195359 117 12802ft 356kts
09-Feb-21 14:59 45.981694 -109.069840 117 11246ft 332kts
09-Feb-21 15:00 45.945539 -108.959293 116 9591ft 276kts
09-Feb-21 15:01 45.909989 -108.870490 121 8171ft 240kts
09-Feb-21 15:01 45.882253 -108.800817 112 7557ft 249kts
09-Feb-21 15:03 45.852606 -108.697176 111 5859ft 212kts
09-Feb-21 15:04 45.833548 -108.628028 107 4632ft 178kts
09-Feb-21 15:05 45.816926 -108.569886 107 3998ft 151kts
09-Feb-21 15:06 45.805427 -108.529066 143 3660ft 7kts
09-Feb-21 15:06 45.804490 -108.529154 223 3660ft 0kts
09-Feb-21 15:07 45.804750 -108.532152 269 3660ft 23kts
09-Feb-21 15:09 45.804741 -108.536315 172 3660ft 0kts
09-Feb-21 15:09 45.804741 -108.536315 172 3660ft 0kts

Navigation Log

Ident Type
Flight plan parsing failed, navigation log unavailable